EZY14DM LPMA-LEPA
Flight info
| Callsign | EZY14DM |
|---|---|
| Flight time | N/A |
| Altitude | 34000 |
| Route | DEGUN DCT RULET DCT GALPA DCT TOSDI N745 ZMR N976 DGO N725 LOBAR DCT MECKI N725 SADUR DCT BCN Z167 LORES |
| Aircraft | A320/M-SDE3FGHIRWY/LB1 |
Departure
| Time | N/A |
|---|---|
| Airport | Cristiano Ronaldo International Airport (LPMA) |
Arrival
| Time | 2026-05-03 21:23 |
|---|---|
| Airport | Palma de Mallorca Airport (LEPA) |
| Time | Latitude | Longitude | Altitude | Speed | Heading |
|---|---|---|---|---|---|
| 2026-05-03 20:15 | 41.33600 | -5.04900 | 33982 ft | 515 kts | 83° |
| 2026-05-03 20:15 | 41.34915 | -4.95561 | 33981 ft | 515 kts | 83° |
| 2026-05-03 20:16 | 41.36248 | -4.86158 | 33986 ft | 514 kts | 83° |
| 2026-05-03 20:16 | 41.37569 | -4.76820 | 33994 ft | 514 kts | 83° |
| 2026-05-03 20:17 | 41.38873 | -4.67509 | 33995 ft | 513 kts | 83° |
| 2026-05-03 20:17 | 41.39953 | -4.59709 | 33993 ft | 512 kts | 83° |
| 2026-05-03 20:18 | 41.41234 | -4.50397 | 33972 ft | 511 kts | 82° |
| 2026-05-03 20:18 | 41.42509 | -4.41114 | 33984 ft | 510 kts | 82° |
| 2026-05-03 20:19 | 41.43783 | -4.31764 | 33982 ft | 509 kts | 83° |
| 2026-05-03 20:19 | 41.45038 | -4.22528 | 33976 ft | 509 kts | 83° |
| 2026-05-03 20:20 | 41.46297 | -4.13233 | 33972 ft | 508 kts | 83° |
| 2026-05-03 20:20 | 41.47540 | -4.03973 | 33966 ft | 508 kts | 83° |
| 2026-05-03 20:21 | 41.48765 | -3.94741 | 33969 ft | 508 kts | 83° |
| 2026-05-03 20:21 | 41.49990 | -3.85425 | 33994 ft | 508 kts | 83° |
| 2026-05-03 20:22 | 41.51197 | -3.76177 | 33975 ft | 507 kts | 83° |
| 2026-05-03 20:22 | 41.52413 | -3.66869 | 33978 ft | 506 kts | 83° |
| 2026-05-03 20:23 | 41.53613 | -3.57620 | 33975 ft | 506 kts | 83° |
| 2026-05-03 20:23 | 41.54804 | -3.48360 | 33979 ft | 506 kts | 83° |
| 2026-05-03 20:24 | 41.55989 | -3.39102 | 33962 ft | 505 kts | 83° |
| 2026-05-03 20:24 | 41.57163 | -3.29888 | 33985 ft | 504 kts | 83° |
| 2026-05-03 20:25 | 41.58333 | -3.20680 | 33986 ft | 503 kts | 83° |
| 2026-05-03 20:25 | 41.59487 | -3.11479 | 33997 ft | 503 kts | 84° |
| 2026-05-03 20:26 | 41.60623 | -3.02273 | 33970 ft | 502 kts | 84° |
| 2026-05-03 20:26 | 41.61758 | -2.93053 | 33978 ft | 502 kts | 84° |
| 2026-05-03 20:27 | 41.62895 | -2.83855 | 33989 ft | 502 kts | 84° |
| 2026-05-03 20:27 | 41.64019 | -2.74645 | 33987 ft | 501 kts | 84° |
| 2026-05-03 20:28 | 41.65127 | -2.65461 | 33969 ft | 501 kts | 84° |
| 2026-05-03 20:28 | 41.66227 | -2.56291 | 33979 ft | 501 kts | 84° |
| 2026-05-03 20:29 | 41.67329 | -2.47079 | 33988 ft | 501 kts | 84° |
| 2026-05-03 20:29 | 41.68423 | -2.37869 | 33989 ft | 501 kts | 84° |
| 2026-05-03 20:30 | 41.69506 | -2.28659 | 33961 ft | 501 kts | 84° |
| 2026-05-03 20:30 | 41.70587 | -2.19455 | 33993 ft | 501 kts | 84° |
| 2026-05-03 20:31 | 41.71656 | -2.10224 | 34002 ft | 500 kts | 84° |
| 2026-05-03 20:31 | 41.72705 | -2.01072 | 34007 ft | 500 kts | 84° |
| 2026-05-03 20:32 | 41.73763 | -1.91845 | 34005 ft | 499 kts | 84° |
| 2026-05-03 20:32 | 41.74805 | -1.82701 | 34000 ft | 499 kts | 84° |
| 2026-05-03 20:33 | 41.75842 | -1.73478 | 34002 ft | 497 kts | 84° |
| 2026-05-03 20:33 | 41.76870 | -1.64327 | 34022 ft | 497 kts | 84° |
| 2026-05-03 20:34 | 41.77884 | -1.55199 | 34015 ft | 497 kts | 84° |
| 2026-05-03 20:34 | 41.78901 | -1.46013 | 34000 ft | 496 kts | 84° |
| 2026-05-03 20:35 | 41.79898 | -1.36890 | 34007 ft | 496 kts | 84° |
| 2026-05-03 20:35 | 41.80887 | -1.27767 | 34009 ft | 495 kts | 84° |
| 2026-05-03 20:36 | 41.81877 | -1.18607 | 34010 ft | 495 kts | 85° |
| 2026-05-03 20:36 | 41.82849 | -1.09511 | 34002 ft | 494 kts | 85° |
| 2026-05-03 20:37 | 41.83815 | -1.00439 | 34018 ft | 492 kts | 85° |
| 2026-05-03 20:37 | 41.84771 | -0.91324 | 34023 ft | 491 kts | 85° |
| 2026-05-03 20:38 | 41.85709 | -0.82288 | 34022 ft | 490 kts | 85° |
| 2026-05-03 20:38 | 41.86640 | -0.73246 | 34013 ft | 489 kts | 85° |
| 2026-05-03 20:39 | 41.87573 | -0.64235 | 34035 ft | 488 kts | 85° |
| 2026-05-03 20:39 | 41.88503 | -0.55184 | 34035 ft | 487 kts | 85° |
| 2026-05-03 20:40 | 41.89414 | -0.46212 | 34033 ft | 486 kts | 85° |
| 2026-05-03 20:40 | 41.90012 | -0.37248 | 34032 ft | 481 kts | 95° |
| 2026-05-03 20:41 | 41.88934 | -0.28512 | 34027 ft | 471 kts | 111° |
| 2026-05-03 20:41 | 41.86975 | -0.20051 | 34021 ft | 472 kts | 111° |
| 2026-05-03 20:42 | 41.85040 | -0.11693 | 34031 ft | 472 kts | 111° |
| 2026-05-03 20:42 | 41.83084 | -0.03289 | 34023 ft | 472 kts | 111° |
| 2026-05-03 20:43 | 41.81123 | 0.05089 | 34002 ft | 472 kts | 111° |
| 2026-05-03 20:43 | 41.79159 | 0.13477 | 34000 ft | 473 kts | 111° |
| 2026-05-03 20:44 | 41.77176 | 0.21929 | 33983 ft | 473 kts | 111° |
| 2026-05-03 20:44 | 41.75192 | 0.30311 | 33983 ft | 474 kts | 111° |
| 2026-05-03 20:45 | 41.73200 | 0.38715 | 33966 ft | 474 kts | 112° |
| 2026-05-03 20:45 | 41.71194 | 0.47114 | 33984 ft | 474 kts | 112° |
| 2026-05-03 20:46 | 41.69187 | 0.55503 | 33986 ft | 475 kts | 112° |
| 2026-05-03 20:46 | 41.67159 | 0.63951 | 33993 ft | 475 kts | 112° |
| 2026-05-03 20:47 | 41.65116 | 0.72301 | 34000 ft | 474 kts | 113° |
| 2026-05-03 20:47 | 41.62954 | 0.80592 | 33992 ft | 473 kts | 114° |
| 2026-05-03 20:48 | 41.60751 | 0.88880 | 34006 ft | 473 kts | 114° |
| 2026-05-03 20:48 | 41.58562 | 0.97199 | 34020 ft | 473 kts | 114° |
| 2026-05-03 20:49 | 41.56394 | 1.05464 | 34019 ft | 472 kts | 114° |
| 2026-05-03 20:49 | 41.54218 | 1.13734 | 34020 ft | 473 kts | 114° |
| 2026-05-03 20:50 | 41.52193 | 1.22099 | 34002 ft | 475 kts | 111° |
| 2026-05-03 20:50 | 41.50308 | 1.30563 | 34005 ft | 476 kts | 111° |
| 2026-05-03 20:51 | 41.48421 | 1.38979 | 34017 ft | 476 kts | 111° |
| 2026-05-03 20:51 | 41.46452 | 1.47435 | 34025 ft | 475 kts | 112° |
| 2026-05-03 20:52 | 41.44468 | 1.55829 | 34023 ft | 475 kts | 112° |
| 2026-05-03 20:52 | 41.42484 | 1.64242 | 34040 ft | 475 kts | 112° |
| 2026-05-03 20:53 | 41.40487 | 1.72622 | 34035 ft | 475 kts | 112° |
| 2026-05-03 20:53 | 41.38370 | 1.80978 | 34039 ft | 474 kts | 113° |
| 2026-05-03 20:54 | 41.36234 | 1.89252 | 34064 ft | 474 kts | 113° |
| 2026-05-03 20:54 | 41.33048 | 2.01681 | 34076 ft | 472 kts | 115° |
| 2026-05-03 20:55 | 41.29908 | 2.09155 | 34065 ft | 458 kts | 134° |
| 2026-05-03 20:55 | 41.25286 | 2.14762 | 34066 ft | 446 kts | 151° |
| 2026-05-03 20:56 | 41.19904 | 2.18842 | 34061 ft | 443 kts | 155° |
| 2026-05-03 20:56 | 41.14625 | 2.22768 | 34048 ft | 443 kts | 155° |
| 2026-05-03 20:57 | 41.09245 | 2.26773 | 34018 ft | 444 kts | 155° |
| 2026-05-03 20:57 | 41.03840 | 2.30778 | 33677 ft | 444 kts | 155° |
| 2026-05-03 20:58 | 41.01172 | 2.32754 | 33400 ft | 444 kts | 155° |
| 2026-05-03 20:58 | 40.98457 | 2.34764 | 33124 ft | 444 kts | 155° |
| 2026-05-03 20:58 | 40.95752 | 2.36763 | 32861 ft | 445 kts | 155° |
| 2026-05-03 20:58 | 40.93068 | 2.38746 | 32600 ft | 446 kts | 155° |
| 2026-05-03 20:59 | 40.90357 | 2.40746 | 32339 ft | 447 kts | 155° |
| 2026-05-03 20:59 | 40.87627 | 2.42753 | 32055 ft | 448 kts | 155° |
| 2026-05-03 20:59 | 40.84883 | 2.44766 | 31804 ft | 451 kts | 155° |
| 2026-05-03 20:59 | 40.82153 | 2.46770 | 31549 ft | 453 kts | 155° |
| 2026-05-03 21:00 | 40.79372 | 2.48815 | 31279 ft | 454 kts | 155° |
| 2026-05-03 21:00 | 40.78470 | 2.49478 | 31079 ft | 454 kts | 154° |
| 2026-05-03 21:00 | 40.73810 | 2.52896 | 28965 ft | 465 kts | 154° |
| 2026-05-03 21:00 | 40.70948 | 2.55004 | 27641 ft | 471 kts | 154° |
| 2026-05-03 21:01 | 40.68103 | 2.57103 | 26394 ft | 476 kts | 154° |
| 2026-05-03 21:01 | 40.65197 | 2.59249 | 25181 ft | 478 kts | 154° |
| 2026-05-03 21:01 | 40.62298 | 2.61394 | 24034 ft | 480 kts | 154° |
| 2026-05-03 21:01 | 40.59388 | 2.63553 | 22875 ft | 480 kts | 154° |
| 2026-05-03 21:02 | 40.56501 | 2.65697 | 22046 ft | 472 kts | 154° |
| 2026-05-03 21:02 | 40.53684 | 2.67792 | 21199 ft | 466 kts | 154° |
| 2026-05-03 21:02 | 40.50862 | 2.69879 | 20308 ft | 461 kts | 154° |
| 2026-05-03 21:02 | 40.48071 | 2.71944 | 19478 ft | 457 kts | 154° |
| 2026-05-03 21:03 | 40.46244 | 2.73298 | 18942 ft | 454 kts | 154° |
| 2026-05-03 21:03 | 40.42614 | 2.75998 | 17795 ft | 444 kts | 154° |
| 2026-05-03 21:03 | 40.40841 | 2.77322 | 16940 ft | 436 kts | 154° |
| 2026-05-03 21:03 | 40.37380 | 2.79909 | 15309 ft | 424 kts | 154° |
| 2026-05-03 21:04 | 40.34834 | 2.81810 | 14139 ft | 417 kts | 154° |
| 2026-05-03 21:04 | 40.33132 | 2.83078 | 13297 ft | 413 kts | 154° |
| 2026-05-03 21:04 | 40.30683 | 2.84895 | 12057 ft | 406 kts | 154° |
| 2026-05-03 21:04 | 40.28237 | 2.86697 | 10920 ft | 399 kts | 154° |
| 2026-05-03 21:05 | 40.25827 | 2.88461 | 10397 ft | 392 kts | 154° |
| 2026-05-03 21:05 | 40.23541 | 2.90138 | 10172 ft | 359 kts | 154° |
| 2026-05-03 21:05 | 40.21473 | 2.91671 | 10021 ft | 329 kts | 155° |
| 2026-05-03 21:05 | 40.19572 | 2.93118 | 10004 ft | 303 kts | 154° |
| 2026-05-03 21:06 | 40.17773 | 2.94509 | 10013 ft | 297 kts | 154° |
| 2026-05-03 21:06 | 40.16016 | 2.95871 | 10019 ft | 297 kts | 154° |
| 2026-05-03 21:06 | 40.14230 | 2.97254 | 10016 ft | 296 kts | 154° |
| 2026-05-03 21:06 | 40.12454 | 2.98630 | 10016 ft | 296 kts | 154° |
| 2026-05-03 21:07 | 40.10701 | 2.99989 | 10016 ft | 295 kts | 154° |
| 2026-05-03 21:07 | 40.08926 | 3.01361 | 10016 ft | 295 kts | 155° |
| 2026-05-03 21:07 | 40.07026 | 3.02189 | 10018 ft | 282 kts | 182° |
| 2026-05-03 21:07 | 40.05108 | 3.02032 | 10021 ft | 279 kts | 192° |
| 2026-05-03 21:08 | 40.03185 | 3.01654 | 9933 ft | 279 kts | 194° |
| 2026-05-03 21:08 | 40.01282 | 3.01130 | 9803 ft | 275 kts | 199° |
| 2026-05-03 21:08 | 39.99474 | 3.00399 | 9672 ft | 274 kts | 201° |
| 2026-05-03 21:08 | 39.97655 | 2.99635 | 9534 ft | 273 kts | 202° |
| 2026-05-03 21:09 | 39.95846 | 2.98861 | 9410 ft | 272 kts | 202° |
| 2026-05-03 21:09 | 39.94071 | 2.98092 | 9283 ft | 272 kts | 202° |
| 2026-05-03 21:09 | 39.92282 | 2.97309 | 9153 ft | 271 kts | 202° |
| 2026-05-03 21:09 | 39.90490 | 2.96521 | 9018 ft | 270 kts | 202° |
| 2026-05-03 21:10 | 39.88713 | 2.95735 | 8901 ft | 270 kts | 202° |
| 2026-05-03 21:10 | 39.86928 | 2.94944 | 8772 ft | 269 kts | 202° |
| 2026-05-03 21:10 | 39.85176 | 2.94126 | 8643 ft | 268 kts | 207° |
| 2026-05-03 21:10 | 39.83572 | 2.92885 | 8509 ft | 266 kts | 219° |
| 2026-05-03 21:11 | 39.82268 | 2.91242 | 8381 ft | 261 kts | 232° |
| 2026-05-03 21:11 | 39.81216 | 2.89295 | 8244 ft | 261 kts | 237° |
| 2026-05-03 21:11 | 39.80199 | 2.87351 | 8118 ft | 261 kts | 236° |
| 2026-05-03 21:11 | 39.79172 | 2.85397 | 7989 ft | 260 kts | 236° |
| 2026-05-03 21:12 | 39.78144 | 2.83449 | 7877 ft | 260 kts | 236° |
| 2026-05-03 21:12 | 39.77137 | 2.81541 | 7741 ft | 260 kts | 236° |
| 2026-05-03 21:12 | 39.76114 | 2.79597 | 7616 ft | 260 kts | 236° |
| 2026-05-03 21:12 | 39.75086 | 2.77648 | 7494 ft | 261 kts | 236° |
| 2026-05-03 21:13 | 39.74051 | 2.75685 | 7367 ft | 261 kts | 236° |
| 2026-05-03 21:13 | 39.73041 | 2.73767 | 7251 ft | 260 kts | 236° |
| 2026-05-03 21:13 | 39.72013 | 2.71818 | 7132 ft | 260 kts | 236° |
| 2026-05-03 21:13 | 39.70983 | 2.69870 | 7019 ft | 260 kts | 236° |
| 2026-05-03 21:14 | 39.69971 | 2.67954 | 7006 ft | 259 kts | 235° |
| 2026-05-03 21:14 | 39.68950 | 2.66019 | 7001 ft | 260 kts | 236° |
| 2026-05-03 21:14 | 39.67926 | 2.64074 | 6878 ft | 260 kts | 236° |
| 2026-05-03 21:14 | 39.66910 | 2.62149 | 6752 ft | 260 kts | 236° |
| 2026-05-03 21:15 | 39.65877 | 2.60196 | 6637 ft | 260 kts | 236° |
| 2026-05-03 21:15 | 39.64857 | 2.58270 | 6515 ft | 260 kts | 235° |
| 2026-05-03 21:15 | 39.63829 | 2.56325 | 6389 ft | 260 kts | 236° |
| 2026-05-03 21:15 | 39.62817 | 2.54409 | 6261 ft | 259 kts | 236° |
| 2026-05-03 21:16 | 39.61795 | 2.52475 | 6137 ft | 259 kts | 235° |
| 2026-05-03 21:16 | 39.60787 | 2.50567 | 6022 ft | 259 kts | 235° |
| 2026-05-03 21:16 | 39.59766 | 2.48643 | 6001 ft | 259 kts | 235° |
| 2026-05-03 21:16 | 39.58739 | 2.46712 | 6004 ft | 259 kts | 235° |
| 2026-05-03 21:17 | 39.57713 | 2.44786 | 6001 ft | 260 kts | 235° |
| 2026-05-03 21:17 | 39.57029 | 2.43500 | 5971 ft | 260 kts | 235° |
| 2026-05-03 21:17 | 39.55252 | 2.41401 | 5203 ft | 268 kts | 201° |
| 2026-05-03 21:17 | 39.53420 | 2.41271 | 4737 ft | 273 kts | 167° |
| 2026-05-03 21:18 | 39.51711 | 2.42390 | 4246 ft | 277 kts | 149° |
| 2026-05-03 21:18 | 39.50144 | 2.43812 | 3994 ft | 268 kts | 146° |
| 2026-05-03 21:18 | 39.48713 | 2.45208 | 3987 ft | 251 kts | 145° |
| 2026-05-03 21:18 | 39.47398 | 2.46637 | 3791 ft | 246 kts | 135° |
| 2026-05-03 21:19 | 39.46491 | 2.48474 | 3616 ft | 243 kts | 115° |
| 2026-05-03 21:19 | 39.46100 | 2.50580 | 3444 ft | 240 kts | 96° |
| 2026-05-03 21:19 | 39.46250 | 2.52721 | 3204 ft | 239 kts | 77° |
| 2026-05-03 21:19 | 39.46918 | 2.54671 | 2917 ft | 240 kts | 60° |
| 2026-05-03 21:20 | 39.47801 | 2.56518 | 2593 ft | 241 kts | 60° |
| 2026-05-03 21:20 | 39.48686 | 2.58370 | 2283 ft | 241 kts | 61° |
| 2026-05-03 21:20 | 39.49558 | 2.60204 | 1964 ft | 241 kts | 61° |
| 2026-05-03 21:20 | 39.50432 | 2.62041 | 1646 ft | 239 kts | 61° |
| 2026-05-03 21:21 | 39.51282 | 2.63828 | 1345 ft | 220 kts | 62° |
| 2026-05-03 21:21 | 39.52035 | 2.65410 | 1050 ft | 198 kts | 63° |
| 2026-05-03 21:21 | 39.52726 | 2.66869 | 800 ft | 183 kts | 62° |
| 2026-05-03 21:21 | 39.53370 | 2.68230 | 580 ft | 169 kts | 59° |
| 2026-05-03 21:22 | 39.53948 | 2.69449 | 390 ft | 151 kts | 58° |
| 2026-05-03 21:22 | 39.54478 | 2.70564 | 163 ft | 139 kts | 58° |
| 2026-05-03 21:22 | 39.54966 | 2.71595 | 37 ft | 130 kts | 58° |
| 2026-05-03 21:22 | 39.55375 | 2.72460 | 30 ft | 88 kts | 59° |
| 2026-05-03 21:23 | 39.55509 | 2.72762 | 30 ft | 13 kts | 90° |
| 2026-05-03 21:23 | 39.55471 | 2.72856 | 30 ft | 9 kts | 124° |
| 2026-05-03 21:23 | 39.55446 | 2.72901 | 30 ft | 3 kts | 126° |
| 2026-05-03 21:23 | 39.55442 | 2.72909 | 30 ft | 0 kts | 127° |
| 2026-05-03 21:24 | 39.55412 | 2.72949 | 30 ft | 10 kts | 143° |
| 2026-05-03 21:24 | 39.55356 | 2.72989 | 30 ft | 9 kts | 153° |
| 2026-05-03 21:24 | 39.55308 | 2.73022 | 30 ft | 7 kts | 151° |
| 2026-05-03 21:24 | 39.55279 | 2.73066 | 30 ft | 6 kts | 107° |
| 2026-05-03 21:25 | 39.55287 | 2.73111 | 30 ft | 6 kts | 62° |
| 2026-05-03 21:25 | 39.55323 | 2.73192 | 30 ft | 15 kts | 60° |
| 2026-05-03 21:25 | 39.55395 | 2.73341 | 30 ft | 23 kts | 58° |
| 2026-05-03 21:25 | 39.55472 | 2.73503 | 30 ft | 17 kts | 57° |
| 2026-05-03 21:26 | 39.55491 | 2.73595 | 30 ft | 8 kts | 126° |
| 2026-05-03 21:26 | 39.55430 | 2.73651 | 30 ft | 17 kts | 149° |
| 2026-05-03 21:26 | 39.55290 | 2.73762 | 30 ft | 29 kts | 148° |
| 2026-05-03 21:26 | 39.55115 | 2.73902 | 30 ft | 30 kts | 149° |
| 2026-05-03 21:27 | 39.54986 | 2.74001 | 30 ft | 12 kts | 152° |
| 2026-05-03 21:27 | 39.54927 | 2.73963 | 30 ft | 9 kts | 205° |
| 2026-05-03 21:27 | 39.54873 | 2.73984 | 30 ft | 8 kts | 152° |
| 2026-05-03 21:27 | 39.54827 | 2.73994 | 30 ft | 6 kts | 202° |
| 2026-05-03 21:28 | 39.54798 | 2.73958 | 30 ft | 5 kts | 231° |
| 2026-05-03 21:28 | 39.54759 | 2.73881 | 30 ft | 15 kts | 238° |
| 2026-05-03 21:28 | 39.54709 | 2.73774 | 30 ft | 13 kts | 239° |
| 2026-05-03 21:28 | 39.54664 | 2.73679 | 30 ft | 12 kts | 238° |
| 2026-05-03 21:29 | 39.54617 | 2.73578 | 30 ft | 16 kts | 238° |
| 2026-05-03 21:29 | 39.54560 | 2.73461 | 30 ft | 15 kts | 238° |
| 2026-05-03 21:29 | 39.54508 | 2.73353 | 30 ft | 13 kts | 238° |
| 2026-05-03 21:29 | 39.54478 | 2.73289 | 30 ft | 7 kts | 239° |
| 2026-05-03 21:30 | 39.54468 | 2.73258 | 30 ft | 1 kts | 278° |
| 2026-05-03 21:30 | 39.54477 | 2.73245 | 30 ft | 5 kts | 312° |
| 2026-05-03 21:30 | 39.54499 | 2.73229 | 30 ft | 1 kts | 337° |
| 2026-05-03 21:30 | 39.54507 | 2.73225 | 30 ft | 1 kts | 337° |
| 2026-05-03 21:31 | 39.54508 | 2.73224 | 30 ft | 0 kts | 341° |